Time;durP1;ratioP1;P1;durP2;ratioP2;P2;SDS_P1;SDS_P2;PMS_P1;PMS_P2;Temp;Humidity;BMP_temperature;BMP_pressure;BME280_temperature;BME280_humidity;BME280_pressure;Samples;Min_cycle;Max_cycle;Signal;HPM_P1;HPM_P2
2022/05/09 00:01:35;;;;;;;4.22;1.73;;;17.20;99.90;;;;;;5068062;28;20284;-82
2022/05/09 00:04:06;;;;;;;4.03;1.90;;;17.10;99.90;;;;;;5069661;28;20285;-82
2022/05/09 00:06:39;;;;;;;4.30;1.95;;;17.10;99.90;;;;;;5064546;28;20206;-82
2022/05/09 00:09:09;;;;;;;5.38;1.80;;;17.10;99.90;;;;;;5063070;28;20286;-81
2022/05/09 00:11:40;;;;;;;6.18;2.05;;;17.10;99.90;;;;;;5065185;28;20280;-84
2022/05/09 00:14:11;;;;;;;4.75;2.33;;;17.10;99.90;;;;;;5069466;28;20204;-84
2022/05/09 00:16:44;;;;;;;7.25;2.47;;;17.10;99.90;;;;;;5069826;28;20224;-84
2022/05/09 00:19:17;;;;;;;3.83;1.60;;;17.10;99.90;;;;;;5071624;28;20200;-86
2022/05/09 00:21:48;;;;;;;5.35;1.80;;;17.20;99.90;;;;;;5071231;28;20203;-86
2022/05/09 00:24:20;;;;;;;2.60;1.42;;;17.20;99.90;;;;;;5068798;28;20200;-87
2022/05/09 00:26:51;;;;;;;3.47;1.70;;;17.20;99.90;;;;;;5072795;28;20191;-86
2022/05/09 00:29:23;;;;;;;3.95;1.52;;;17.30;99.90;;;;;;5064802;28;20210;-88
2022/05/09 00:31:57;;;;;;;1.95;1.40;;;17.30;99.90;;;;;;5069115;28;20218;-86
2022/05/09 00:34:28;;;;;;;3.30;1.35;;;17.50;99.90;;;;;;5068390;28;20203;-84
2022/05/09 00:36:59;;;;;;;3.35;0.88;;;17.50;99.90;;;;;;5067103;28;20207;-85
2022/05/09 00:39:30;;;;;;;4.13;0.90;;;17.50;99.90;;;;;;5069585;28;20546;-85
2022/05/09 00:42:10;;;;;;;2.00;0.80;;;17.50;99.90;;;;;;5082177;28;20272;-84
2022/05/09 00:44:41;;;;;;;2.53;0.88;;;17.50;99.90;;;;;;5087714;28;20195;-83
2022/05/09 00:47:13;;;;;;;4.10;1.00;;;17.50;99.90;;;;;;5083444;28;20666;-84
2022/05/09 00:49:48;;;;;;;1.67;0.68;;;17.50;99.90;;;;;;5087661;28;20203;-85
2022/05/09 00:52:23;;;;;;;1.58;0.68;;;17.60;99.90;;;;;;5083874;28;20210;-83
2022/05/09 00:54:58;;;;;;;0.98;0.70;;;17.70;99.90;;;;;;5083513;28;20195;-84
2022/05/09 00:57:33;;;;;;;2.20;0.95;;;17.70;99.90;;;;;;5082622;28;20192;-82
2022/05/09 01:00:08;;;;;;;1.27;0.90;;;17.60;99.90;;;;;;5083598;28;20218;-84
2022/05/09 01:02:43;;;;;;;2.42;1.10;;;17.60;99.90;;;;;;5090619;28;20230;-84
2022/05/09 01:05:15;;;;;;;1.83;0.95;;;17.60;99.90;;;;;;5080313;28;20195;-85
2022/05/09 01:07:46;;;;;;;4.03;1.00;;;17.60;99.90;;;;;;5084743;28;20195;-87
2022/05/09 01:10:19;;;;;;;4.47;1.00;;;17.50;99.90;;;;;;5092113;28;20196;-86
2022/05/09 01:12:49;;;;;;;5.22;1.40;;;17.40;99.90;;;;;;5078648;28;20227;-88
2022/05/09 01:15:22;;;;;;;2.08;0.90;;;17.50;99.90;;;;;;5080494;28;20603;-86
2022/05/09 01:17:54;;;;;;;1.60;0.98;;;17.40;99.90;;;;;;5093473;28;20603;-85
2022/05/09 01:20:25;;;;;;;2.75;1.13;;;17.50;99.90;;;;;;5093153;28;20191;-84
2022/05/09 01:23:00;;;;;;;3.10;1.10;;;17.50;99.90;;;;;;5075983;28;20249;-85
2022/05/09 01:25:32;;;;;;;2.65;1.20;;;17.50;99.90;;;;;;5080507;28;20679;-84
2022/05/09 01:28:03;;;;;;;4.38;1.20;;;17.50;99.90;;;;;;5085428;28;20218;-86
2022/05/09 01:30:42;;;;;;;4.05;1.30;;;17.40;99.90;;;;;;5093637;28;20200;-84
2022/05/09 01:33:18;;;;;;;1.70;1.20;;;17.50;99.90;;;;;;5093866;28;20256;-84
2022/05/09 01:35:55;;;;;;;2.80;1.20;;;17.50;99.90;;;;;;5091228;28;20218;-85
2022/05/09 01:38:33;;;;;;;3.90;1.20;;;17.50;99.90;;;;;;5088852;28;20203;-84
2022/05/09 01:41:04;;;;;;;2.15;1.10;;;17.60;99.90;;;;;;5076255;28;20202;-84
2022/05/09 01:43:36;;;;;;;3.22;1.17;;;17.60;99.90;;;;;;5078095;28;20187;-84
2022/05/09 01:46:09;;;;;;;3.80;1.20;;;17.50;99.90;;;;;;5084126;28;20219;-85
2022/05/09 01:51:26;;;;;;;6.30;1.40;;;17.50;99.90;;;;;;5091523;28;20261;-85
2022/05/09 01:53:59;;;;;;;12.23;2.00;;;17.40;99.90;;;;;;5074999;28;20265;-86
2022/05/09 01:56:32;;;;;;;2.22;0.90;;;17.40;99.90;;;;;;5076427;28;20255;-84
2022/05/09 01:59:03;;;;;;;1.80;0.90;;;17.30;99.90;;;;;;5083309;28;20217;-85
2022/05/09 02:01:40;;;;;;;3.13;1.00;;;17.30;99.90;;;;;;5085909;28;20199;-88
2022/05/09 02:04:11;;;;;;;2.85;1.20;;;17.30;99.90;;;;;;5087665;28;20280;-85
2022/05/09 02:06:42;;;;;;;3.28;1.00;;;17.40;99.90;;;;;;5084866;28;20187;-84
2022/05/09 02:09:14;;;;;;;4.82;1.10;;;17.40;99.90;;;;;;5073581;28;20242;-86
2022/05/09 02:11:45;;;;;;;1.90;0.80;;;17.60;99.90;;;;;;5083560;28;20245;-85
2022/05/09 02:14:16;;;;;;;1.80;0.80;;;17.60;99.90;;;;;;5073997;28;20663;-82
2022/05/09 02:16:46;;;;;;;2.50;1.13;;;17.70;99.90;;;;;;5076354;28;20207;-86
2022/05/09 02:19:17;;;;;;;3.30;1.13;;;17.70;99.90;;;;;;5078228;28;20188;-88
2022/05/09 02:21:48;;;;;;;3.70;1.10;;;17.70;99.90;;;;;;5076163;28;20250;-88
2022/05/09 02:24:21;;;;;;;1.70;0.93;;;17.60;99.90;;;;;;5073825;28;20265;-85
2022/05/09 02:26:52;;;;;;;3.55;1.35;;;17.60;99.90;;;;;;5073471;28;20253;-84
2022/05/09 02:29:22;;;;;;;3.25;0.80;;;17.70;99.90;;;;;;5072402;28;20507;-84
2022/05/09 02:31:54;;;;;;;2.85;1.20;;;17.80;99.90;;;;;;5073711;28;20575;-84
2022/05/09 02:34:25;;;;;;;4.63;1.20;;;17.80;99.90;;;;;;5079367;28;20243;-84
2022/05/09 02:36:56;;;;;;;3.08;1.15;;;17.80;99.90;;;;;;5081953;28;20195;-83
2022/05/09 02:39:28;;;;;;;5.10;1.25;;;17.70;99.90;;;;;;5074077;28;20200;-84
2022/05/09 02:41:59;;;;;;;3.15;1.00;;;17.60;99.90;;;;;;5074141;28;20199;-85
2022/05/09 02:44:30;;;;;;;3.92;1.27;;;17.60;99.90;;;;;;5074929;28;20207;-83
2022/05/09 02:47:01;;;;;;;3.33;1.10;;;17.60;99.90;;;;;;5074615;28;20239;-84
2022/05/09 02:49:31;;;;;;;2.90;1.20;;;17.60;99.90;;;;;;5074107;28;20253;-84
2022/05/09 02:52:02;;;;;;;3.67;1.30;;;17.60;99.90;;;;;;5075381;28;20226;-83
2022/05/09 02:54:36;;;;;;;3.15;1.65;;;17.70;99.90;;;;;;5075104;28;20238;-84
2022/05/09 02:57:07;;;;;;;3.38;1.27;;;17.70;99.90;;;;;;5077131;28;20249;-84
2022/05/09 02:59:38;;;;;;;2.15;1.15;;;17.70;99.90;;;;;;5091953;28;20272;-84
2022/05/09 03:02:09;;;;;;;3.05;1.52;;;17.70;99.90;;;;;;5091176;28;20195;-84
2022/05/09 03:04:41;;;;;;;3.58;1.30;;;17.60;99.90;;;;;;5074057;28;20204;-85
2022/05/09 03:07:12;;;;;;;1.60;1.05;;;17.60;99.90;;;;;;5080440;28;20645;-84
2022/05/09 03:09:47;;;;;;;2.65;1.20;;;17.60;99.90;;;;;;5091014;28;20497;-84
2022/05/09 03:12:19;;;;;;;6.47;1.58;;;17.60;99.90;;;;;;5092513;28;20191;-84
2022/05/09 03:14:50;;;;;;;2.72;1.35;;;17.70;99.90;;;;;;5073348;28;20204;-84
2022/05/09 03:17:21;;;;;;;2.80;1.08;;;17.60;99.90;;;;;;5097248;28;20198;-85
2022/05/09 03:19:52;;;;;;;3.13;1.10;;;17.70;99.90;;;;;;5113348;28;20199;-84
2022/05/09 03:22:23;;;;;;;2.95;1.30;;;17.70;99.90;;;;;;5097810;28;20203;-85
2022/05/09 03:24:56;;;;;;;4.88;1.33;;;17.80;99.90;;;;;;5104850;28;20195;-84
2022/05/09 03:27:26;;;;;;;5.68;1.67;;;17.80;99.90;;;;;;5090872;28;20199;-84
2022/05/09 03:29:57;;;;;;;4.50;1.30;;;17.70;99.90;;;;;;5101438;28;20203;-83
2022/05/09 03:32:28;;;;;;;6.35;1.60;;;17.70;99.90;;;;;;5098905;28;20602;-81
2022/05/09 03:34:59;;;;;;;3.47;1.40;;;17.70;99.90;;;;;;5081619;28;20192;-81
2022/05/09 03:37:30;;;;;;;3.03;1.20;;;17.70;99.90;;;;;;5090629;28;20200;-82
2022/05/09 03:40:02;;;;;;;3.47;1.15;;;17.70;99.90;;;;;;5097182;28;20230;-84
2022/05/09 03:42:33;;;;;;;3.55;1.00;;;17.70;99.90;;;;;;5092559;28;20663;-84
2022/05/09 03:45:03;;;;;;;4.03;1.30;;;17.70;99.90;;;;;;5076049;28;20678;-83
2022/05/09 03:47:34;;;;;;;3.80;1.20;;;17.60;99.90;;;;;;5077550;28;20192;-82
2022/05/09 03:50:05;;;;;;;3.20;1.50;;;17.70;99.90;;;;;;5077219;28;20196;-83
2022/05/09 03:52:35;;;;;;;4.75;1.55;;;17.70;99.90;;;;;;5088620;28;20553;-84
2022/05/09 03:55:09;;;;;;;3.28;1.27;;;17.70;99.90;;;;;;5083806;28;20327;-81
2022/05/09 03:57:48;;;;;;;3.17;1.30;;;17.70;99.90;;;;;;5075935;28;20250;-81
2022/05/09 04:00:21;;;;;;;4.50;1.30;;;17.70;99.90;;;;;;5075793;28;20207;-83
2022/05/09 04:02:51;;;;;;;3.08;1.33;;;17.80;99.90;;;;;;5076605;28;20277;-81
2022/05/09 04:05:22;;;;;;;2.92;1.30;;;17.80;99.90;;;;;;5075753;28;20192;-84
2022/05/09 04:07:54;;;;;;;2.22;1.05;;;17.80;99.90;;;;;;5075938;28;20253;-85
2022/05/09 04:10:29;;;;;;;4.97;1.20;;;17.80;99.90;;;;;;5075640;28;20203;-81
2022/05/09 04:12:59;;;;;;;4.03;1.30;;;17.90;99.90;;;;;;5088300;28;20192;-82
2022/05/09 04:18:18;;;;;;;3.03;1.10;;;18.00;99.90;;;;;;5092333;28;20514;-82
2022/05/09 04:20:50;;;;;;;3.10;1.10;;;17.90;99.90;;;;;;5095377;28;20230;-82
2022/05/09 04:23:22;;;;;;;3.25;1.25;;;17.90;99.90;;;;;;5095727;28;20618;-82
2022/05/09 04:25:54;;;;;;;4.85;1.48;;;18.00;99.90;;;;;;5095368;28;20199;-81
2022/05/09 04:28:25;;;;;;;2.58;1.27;;;18.10;99.90;;;;;;5093392;28;20659;-82
2022/05/09 04:30:56;;;;;;;3.17;1.33;;;18.10;99.90;;;;;;5072589;28;20199;-83
2022/05/09 04:33:27;;;;;;;4.53;1.40;;;18.20;99.90;;;;;;5072798;28;20219;-81
2022/05/09 04:35:58;;;;;;;2.00;1.00;;;18.20;99.90;;;;;;5072810;28;20191;-82
2022/05/09 04:38:28;;;;;;;2.92;1.15;;;18.20;99.90;;;;;;5073067;28;20707;-82
2022/05/09 04:41:02;;;;;;;3.00;1.02;;;18.20;99.90;;;;;;5073031;28;20249;-82
2022/05/09 04:43:33;;;;;;;3.22;0.85;;;18.20;99.90;;;;;;5073700;28;20188;-81
2022/05/09 04:46:04;;;;;;;3.80;1.15;;;18.10;99.90;;;;;;5073551;28;20567;-81
2022/05/09 04:48:35;;;;;;;1.98;0.85;;;18.20;99.90;;;;;;5072586;28;20196;-82
2022/05/09 04:51:06;;;;;;;3.47;1.00;;;18.30;99.90;;;;;;5077933;28;20194;-82
2022/05/09 04:53:38;;;;;;;2.88;1.00;;;18.30;99.90;;;;;;5092847;28;20223;-82
2022/05/09 04:56:11;;;;;;;3.42;1.00;;;18.40;99.90;;;;;;5092901;28;20253;-83
2022/05/09 04:58:42;;;;;;;1.95;0.93;;;18.50;99.90;;;;;;5093304;28;20198;-83
2022/05/09 05:01:13;;;;;;;3.20;0.93;;;18.40;99.90;;;;;;5092736;28;20199;-84
2022/05/09 05:03:44;;;;;;;5.10;1.35;;;18.50;99.90;;;;;;5073631;28;20240;-83
2022/05/09 05:09:38;;;;;;;2.42;0.90;;;18.40;99.90;;;;;;5071433;28;20294;-83
2022/05/09 05:12:12;;;;;;;2.47;1.00;;;18.50;99.90;;;;;;5083095;28;20565;-84
2022/05/09 05:14:42;;;;;;;2.90;0.90;;;18.50;99.90;;;;;;5088839;28;20348;-83
2022/05/09 05:17:13;;;;;;;5.55;1.20;;;18.50;99.90;;;;;;5076858;28;20203;-85
2022/05/09 05:19:45;;;;;;;2.67;1.20;;;18.50;99.90;;;;;;5082984;28;20676;-84
2022/05/09 05:22:16;;;;;;;3.45;1.20;;;18.50;99.90;;;;;;5092434;28;20286;-83
2022/05/09 05:24:51;;;;;;;4.10;1.45;;;18.50;99.90;;;;;;5092816;28;20567;-84
2022/05/09 05:27:24;;;;;;;3.72;1.20;;;18.50;99.90;;;;;;5092009;28;20206;-84
2022/05/09 05:29:57;;;;;;;3.67;1.20;;;18.60;99.90;;;;;;5072802;28;20662;-84
2022/05/09 05:32:29;;;;;;;3.03;1.10;;;18.60;99.90;;;;;;5072756;28;20629;-82
2022/05/09 05:35:00;;;;;;;2.47;1.10;;;18.60;99.90;;;;;;5088619;28;20226;-85
2022/05/09 05:37:30;;;;;;;4.75;1.20;;;18.60;99.90;;;;;;5088543;28;20572;-83
2022/05/09 05:40:01;;;;;;;4.43;1.38;;;18.60;99.90;;;;;;5087577;28;20540;-84
2022/05/09 05:42:34;;;;;;;3.53;0.95;;;18.70;99.90;;;;;;5071535;28;20203;-82
2022/05/09 05:45:05;;;;;;;4.15;1.13;;;18.70;99.90;;;;;;5071394;28;20192;-82
2022/05/09 05:47:35;;;;;;;2.05;1.10;;;18.70;99.90;;;;;;5071385;28;20195;-83
2022/05/09 05:50:07;;;;;;;2.30;1.00;;;18.70;99.90;;;;;;5071479;28;20219;-83
2022/05/09 05:52:37;;;;;;;2.58;1.00;;;18.70;99.90;;;;;;5083498;28;20316;-82
2022/05/09 05:55:10;;;;;;;4.78;1.08;;;18.70;99.90;;;;;;5071315;28;20292;-82
2022/05/09 05:57:45;;;;;;;4.63;1.00;;;18.70;99.90;;;;;;5071693;28;20602;-83
2022/05/09 06:00:19;;;;;;;2.42;0.93;;;18.70;99.90;;;;;;5071476;28;20203;-84
2022/05/09 06:02:49;;;;;;;2.95;1.17;;;18.70;99.90;;;;;;5071341;28;20314;-85
2022/05/09 06:05:21;;;;;;;1.73;0.95;;;18.70;99.90;;;;;;5071193;28;20200;-85
2022/05/09 06:07:55;;;;;;;3.45;1.00;;;18.60;99.90;;;;;;5074734;28;20187;-84
2022/05/09 06:10:26;;;;;;;4.25;1.45;;;18.60;99.90;;;;;;5072106;28;20257;-84
2022/05/09 06:12:59;;;;;;;4.63;1.20;;;18.60;99.90;;;;;;5073885;28;20196;-83
2022/05/09 06:15:34;;;;;;;3.65;1.55;;;18.50;99.90;;;;;;5091460;28;20231;-83
2022/05/09 06:18:05;;;;;;;2.63;1.25;;;18.50;99.90;;;;;;5091459;28;20230;-83
2022/05/09 06:20:39;;;;;;;4.53;1.50;;;18.50;99.90;;;;;;5091148;28;20200;-84
2022/05/09 06:23:10;;;;;;;5.32;1.48;;;18.40;99.90;;;;;;5091251;28;20203;-83
2022/05/09 06:25:41;;;;;;;2.05;1.08;;;18.30;99.90;;;;;;5088849;28;20260;-83
2022/05/09 06:28:14;;;;;;;2.95;1.50;;;18.20;99.90;;;;;;5076506;28;20569;-83
2022/05/09 06:30:45;;;;;;;3.83;1.33;;;18.10;99.90;;;;;;5071087;28;20231;-83
2022/05/09 06:33:22;;;;;;;2.92;1.17;;;18.10;99.90;;;;;;5071566;28;20199;-83
2022/05/09 06:35:53;;;;;;;3.42;1.30;;;18.00;99.90;;;;;;5081172;28;20290;-83
2022/05/09 06:38:27;;;;;;;2.75;1.17;;;17.90;99.90;;;;;;5071477;28;20196;-85
2022/05/09 06:41:00;;;;;;;2.10;1.00;;;17.90;99.90;;;;;;5071195;28;20203;-83
2022/05/09 06:43:33;;;;;;;3.60;0.98;;;17.90;99.90;;;;;;5071114;28;20223;-84
2022/05/09 06:46:04;;;;;;;1.23;1.10;;;17.90;99.90;;;;;;5078064;28;20211;-84
2022/05/09 06:48:35;;;;;;;2.38;1.00;;;17.90;99.90;;;;;;5090940;28;20195;-84
2022/05/09 06:51:06;;;;;;;2.63;1.20;;;17.80;99.90;;;;;;5077859;28;20539;-84
2022/05/09 06:53:38;;;;;;;2.17;0.93;;;17.80;99.90;;;;;;5070862;28;20564;-82
2022/05/09 06:56:10;;;;;;;3.00;1.38;;;17.80;99.90;;;;;;5070683;28;20196;-84
2022/05/09 06:58:42;;;;;;;3.22;1.30;;;17.80;99.90;;;;;;5071113;28;20762;-84
2022/05/09 07:01:17;;;;;;;4.25;1.67;;;17.80;99.90;;;;;;5085526;28;20179;-84
2022/05/09 07:03:48;;;;;;;3.25;1.65;;;17.80;99.90;;;;;;5094311;28;20227;-83
2022/05/09 07:06:19;;;;;;;3.78;1.70;;;17.70;99.90;;;;;;5091464;28;20228;-84
2022/05/09 07:08:49;;;;;;;3.88;2.13;;;17.70;99.90;;;;;;5071002;28;20751;-83
2022/05/09 07:11:20;;;;;;;5.95;2.15;;;17.70;99.90;;;;;;5086235;28;20199;-84
2022/05/09 07:13:52;;;;;;;4.53;1.90;;;17.70;99.90;;;;;;5085457;28;20244;-83
2022/05/09 07:16:23;;;;;;;6.70;2.22;;;17.70;99.90;;;;;;5070664;28;20198;-83
2022/05/09 07:18:54;;;;;;;4.03;1.80;;;17.60;99.90;;;;;;5070736;28;20235;-83
2022/05/09 07:21:25;;;;;;;4.50;2.42;;;17.60;99.90;;;;;;5070496;28;20651;-83
2022/05/09 07:23:55;;;;;;;6.30;2.33;;;17.60;99.90;;;;;;5075524;28;20606;-85
2022/05/09 07:26:26;;;;;;;4.25;1.70;;;17.60;99.90;;;;;;5089258;28;20184;-83
2022/05/09 07:28:59;;;;;;;4.25;2.00;;;17.70;99.90;;;;;;5070965;28;20230;-85
2022/05/09 07:31:29;;;;;;;2.70;1.50;;;17.70;99.90;;;;;;5070868;28;20230;-84
2022/05/09 07:34:00;;;;;;;3.13;1.27;;;17.70;99.90;;;;;;5070146;28;20200;-85
2022/05/09 07:36:31;;;;;;;3.45;1.42;;;17.70;99.90;;;;;;5070981;28;20222;-84
2022/05/09 07:39:02;;;;;;;5.15;2.15;;;17.60;99.90;;;;;;5083814;28;20208;-84
2022/05/09 07:41:33;;;;;;;3.85;2.00;;;17.60;99.90;;;;;;5089971;28;20200;-84
2022/05/09 07:44:05;;;;;;;3.70;1.30;;;17.60;99.90;;;;;;5071313;28;20271;-84
2022/05/09 07:46:36;;;;;;;6.40;1.40;;;17.60;99.90;;;;;;5069527;28;20227;-85
2022/05/09 07:49:07;;;;;;;2.70;1.00;;;17.60;99.90;;;;;;5069989;28;20196;-85
2022/05/09 07:51:38;;;;;;;4.70;1.20;;;17.50;99.90;;;;;;5074931;28;20237;-85
2022/05/09 07:54:09;;;;;;;4.07;1.10;;;17.50;99.90;;;;;;5074119;28;20210;-84
2022/05/09 07:56:43;;;;;;;4.63;1.02;;;17.50;99.90;;;;;;5089665;28;20261;-83
2022/05/09 07:59:17;;;;;;;5.22;1.40;;;17.50;99.90;;;;;;5090161;28;20477;-85
2022/05/09 08:01:48;;;;;;;4.07;1.10;;;17.40;99.90;;;;;;5089129;28;20655;-83
2022/05/09 08:04:19;;;;;;;3.05;1.17;;;17.40;99.90;;;;;;5074988;28;20638;-82
2022/05/09 08:06:49;;;;;;;3.20;1.00;;;17.40;99.90;;;;;;5073461;28;20207;-84
2022/05/09 08:09:20;;;;;;;3.38;1.30;;;17.40;99.90;;;;;;5073128;28;20196;-80
2022/05/09 08:11:50;;;;;;;4.15;1.40;;;17.40;99.90;;;;;;5076849;28;20607;-81
2022/05/09 08:14:23;;;;;;;3.00;1.58;;;17.40;99.90;;;;;;5071525;28;20222;-80
2022/05/09 08:16:54;;;;;;;3.83;0.98;;;17.40;99.90;;;;;;5089475;28;20191;-80
2022/05/09 08:19:25;;;;;;;4.35;1.30;;;17.40;99.90;;;;;;5093602;28;20240;-80
2022/05/09 08:21:55;;;;;;;4.32;1.40;;;17.40;99.90;;;;;;5076733;28;20192;-81
2022/05/09 08:24:28;;;;;;;2.30;0.80;;;17.40;99.90;;;;;;5073080;28;20564;-82
2022/05/09 08:26:58;;;;;;;2.50;0.90;;;17.40;99.90;;;;;;5086169;28;20200;-80
2022/05/09 08:29:31;;;;;;;8.20;3.00;;;17.40;99.90;;;;;;5093685;28;20195;-81
2022/05/09 08:32:02;;;;;;;6.63;3.17;;;17.40;99.90;;;;;;5092109;28;20191;-81
2022/05/09 08:34:34;;;;;;;4.68;2.20;;;17.40;99.90;;;;;;5072831;28;20289;-81
2022/05/09 08:37:05;;;;;;;5.07;2.20;;;17.40;99.90;;;;;;5073132;28;20231;-80
2022/05/09 08:39:35;;;;;;;3.85;1.33;;;17.40;99.90;;;;;;5074733;28;20200;-81
2022/05/09 08:42:08;;;;;;;5.85;2.22;;;17.40;99.90;;;;;;5087407;28;20192;-80
2022/05/09 08:45:10;;;;;;;4.80;2.17;;;17.30;99.90;;;;;;5072891;28;20731;-82
2022/05/09 08:47:56;;;;;;;4.13;2.00;;;17.30;99.90;;;;;;5070568;28;20199;-82
2022/05/09 08:50:31;;;;;;;6.93;4.80;;;17.30;99.90;;;;;;5092057;28;20203;-81
2022/05/09 08:53:07;;;;;;;4.45;2.83;;;17.30;99.90;;;;;;5092810;28;20275;-82
2022/05/09 08:55:40;;;;;;;6.78;2.60;;;17.30;99.90;;;;;;5092495;28;20218;-81
2022/05/09 08:58:21;;;;;;;7.15;2.33;;;17.30;99.90;;;;;;5093066;28;20243;-82
2022/05/09 09:00:55;;;;;;;4.57;2.00;;;17.30;99.90;;;;;;5075891;28;20749;-82
2022/05/09 09:03:34;;;;;;;3.50;1.58;;;17.30;99.90;;;;;;5071830;28;20245;-82
2022/05/09 09:06:08;;;;;;;2.28;1.50;;;17.30;99.90;;;;;;5085807;28;20195;-82
2022/05/09 09:08:58;;;;;;;3.67;1.70;;;17.30;99.90;;;;;;5092023;28;20662;-82
2022/05/09 09:11:36;;;;;;;2.20;1.30;;;17.30;99.90;;;;;;5073100;28;20215;-83
2022/05/09 09:14:13;;;;;;;2.88;1.40;;;17.30;99.90;;;;;;5071635;28;20261;-82
2022/05/09 09:17:03;;;;;;;4.45;1.80;;;17.30;99.90;;;;;;5090013;28;20269;-83
2022/05/09 09:19:49;;;;;;;4.03;1.55;;;17.30;99.90;;;;;;5072886;28;20199;-86
2022/05/09 09:22:34;;;;;;;7.88;3.00;;;17.30;99.90;;;;;;5073501;28;20199;-85
2022/05/09 09:25:28;;;;;;;5.60;2.28;;;17.30;99.90;;;;;;5092320;28;20199;-85
2022/05/09 09:28:05;;;;;;;4.13;1.50;;;17.20;99.90;;;;;;5093007;28;20595;-85
2022/05/09 09:30:38;;;;;;;5.05;1.67;;;17.20;99.90;;;;;;5078850;28;20196;-86
2022/05/09 09:33:16;;;;;;;3.35;1.70;;;17.20;99.90;;;;;;5072135;28;20203;-85
2022/05/09 09:35:51;;;;;;;11.30;5.93;;;17.20;99.90;;;;;;5072726;28;20607;-86
2022/05/09 09:38:40;;;;;;;7.03;3.50;;;17.10;99.90;;;;;;5071657;28;20280;-81
2022/05/09 09:41:21;;;;;;;5.18;1.85;;;17.10;99.90;;;;;;5087867;28;20248;-80
2022/05/09 09:43:58;;;;;;;4.68;1.70;;;17.10;99.90;;;;;;5081911;28;20192;-80
2022/05/09 09:46:29;;;;;;;6.80;2.72;;;17.10;99.90;;;;;;5071560;28;20713;-81
2022/05/09 09:49:12;;;;;;;5.03;2.10;;;17.10;99.90;;;;;;5074418;28;20720;-81
2022/05/09 09:51:51;;;;;;;7.45;2.35;;;17.10;99.90;;;;;;5081685;28;20249;-80
2022/05/09 09:54:24;;;;;;;4.03;2.08;;;17.00;99.90;;;;;;5091552;28;20253;-81
2022/05/09 09:56:54;;;;;;;4.85;2.05;;;17.00;99.90;;;;;;5091054;28;20635;-82
2022/05/09 09:59:26;;;;;;;4.55;1.80;;;17.00;99.90;;;;;;5088306;28;20245;-83
2022/05/09 10:02:09;;;;;;;3.85;1.48;;;17.00;99.90;;;;;;5070947;28;20192;-80
2022/05/09 10:04:42;;;;;;;5.75;2.00;;;17.00;99.90;;;;;;5071326;28;20192;-80
2022/05/09 10:07:16;;;;;;;2.78;1.40;;;17.00;99.90;;;;;;5071229;28;20204;-81
2022/05/09 10:09:48;;;;;;;2.65;1.50;;;17.00;99.90;;;;;;5080753;28;20199;-80
2022/05/09 10:12:22;;;;;;;3.85;1.58;;;17.00;99.90;;;;;;5071088;28;20196;-80
2022/05/09 10:14:54;;;;;;;4.72;1.70;;;17.00;99.90;;;;;;5085053;28;20522;-80
2022/05/09 10:17:31;;;;;;;4.00;1.52;;;17.00;99.90;;;;;;5089743;28;20199;-81
2022/05/09 10:20:21;;;;;;;2.85;1.58;;;16.90;99.90;;;;;;5087912;28;20199;-80
2022/05/09 10:25:47;;;;;;;3.50;1.30;;;17.00;99.90;;;;;;5080850;28;20210;-80
2022/05/09 10:28:21;;;;;;;2.55;1.65;;;17.00;99.90;;;;;;5084539;28;20687;-82
2022/05/09 10:30:55;;;;;;;2.83;1.42;;;17.00;99.90;;;;;;5090216;28;20271;-81
2022/05/09 10:33:32;;;;;;;6.07;3.20;;;17.00;99.90;;;;;;5090896;28;20199;-80
2022/05/09 10:36:10;;;;;;;3.13;1.95;;;16.90;99.90;;;;;;5091625;28;20230;-80
2022/05/09 10:38:52;;;;;;;3.17;1.63;;;16.90;99.90;;;;;;5090790;28;20202;-78
2022/05/09 10:41:32;;;;;;;2.92;1.40;;;16.90;99.90;;;;;;5071576;28;20658;-80
2022/05/09 10:44:07;;;;;;;5.00;1.83;;;17.00;99.90;;;;;;5071100;28;20195;-80
2022/05/09 10:46:45;;;;;;;2.65;1.23;;;17.00;99.90;;;;;;5070483;28;20285;-81
2022/05/09 10:49:36;;;;;;;1.98;1.02;;;17.00;99.90;;;;;;5071234;28;20192;-79
2022/05/09 10:52:23;;;;;;;3.13;1.42;;;17.00;99.90;;;;;;5070517;28;20260;-80
2022/05/09 10:54:59;;;;;;;2.03;1.40;;;17.00;99.90;;;;;;5070153;28;20572;-81
2022/05/09 10:57:33;;;;;;;3.80;1.42;;;17.00;99.90;;;;;;5071062;28;20252;-80
2022/05/09 11:00:12;;;;;;;2.83;1.40;;;16.90;99.90;;;;;;5071346;28;20203;-82
2022/05/09 11:02:52;;;;;;;3.90;1.73;;;17.00;99.90;;;;;;5070391;28;20230;-80
2022/05/09 11:05:25;;;;;;;3.17;1.20;;;17.00;99.90;;;;;;5071442;28;20280;-81
2022/05/09 11:08:05;;;;;;;2.85;1.77;;;16.90;99.90;;;;;;5070397;28;20203;-79
2022/05/09 11:10:42;;;;;;;3.08;1.20;;;16.90;99.90;;;;;;5070350;28;20196;-83
2022/05/09 11:13:25;;;;;;;2.95;1.50;;;16.90;99.90;;;;;;5070102;28;20199;-83
2022/05/09 11:16:06;;;;;;;4.85;1.40;;;16.90;99.90;;;;;;5070458;28;20234;-80
2022/05/09 11:19:01;;;;;;;3.33;1.40;;;16.90;99.90;;;;;;5070167;28;20210;-81
2022/05/09 11:21:42;;;;;;;2.85;1.45;;;16.90;99.90;;;;;;5086447;28;20631;-81
2022/05/09 11:24:25;;;;;;;2.15;1.10;;;16.90;99.90;;;;;;5070359;28;20210;-79
2022/05/09 11:27:07;;;;;;;3.65;1.30;;;16.90;99.90;;;;;;5072515;28;20200;-80
2022/05/09 11:29:55;;;;;;;2.35;1.13;;;16.90;99.90;;;;;;5090764;28;20199;-80
2022/05/09 11:32:41;;;;;;;2.45;0.95;;;16.90;99.90;;;;;;5090276;28;20199;-81
2022/05/09 11:35:36;;;;;;;2.83;1.20;;;17.00;99.90;;;;;;5070402;28;20713;-81
2022/05/09 11:38:26;;;;;;;2.78;1.20;;;16.90;99.90;;;;;;5073308;28;20204;-81
2022/05/09 11:41:06;;;;;;;3.53;1.30;;;16.90;99.90;;;;;;5089362;28;20210;-81
2022/05/09 11:44:13;;;;;;;3.58;1.30;;;16.90;99.90;;;;;;5094580;28;20264;-80
2022/05/09 11:47:06;;;;;;;3.78;1.40;;;16.90;99.90;;;;;;5012057;28;20217;-79
2022/05/09 11:50:09;;;;;;;2.60;1.30;;;16.90;99.90;;;;;;5087335;28;20203;-81
2022/05/09 11:52:43;;;;;;;2.97;1.30;;;16.90;99.90;;;;;;5074052;28;20666;-82
2022/05/09 11:55:19;;;;;;;2.70;1.20;;;16.90;99.90;;;;;;5074496;28;20196;-82
2022/05/09 11:57:55;;;;;;;2.85;1.52;;;16.90;99.90;;;;;;5073979;28;20671;-80
2022/05/09 12:00:51;;;;;;;3.00;1.13;;;16.90;99.90;;;;;;5073655;28;20619;-80
2022/05/09 12:04:02;;;;;;;2.72;1.20;;;16.90;99.90;;;;;;5073115;28;20292;-81
2022/05/09 12:06:42;;;;;;;2.85;1.33;;;16.90;99.90;;;;;;5074431;28;20202;-81
2022/05/09 12:09:17;;;;;;;2.28;1.25;;;16.90;99.90;;;;;;5075718;28;20191;-80
2022/05/09 12:11:53;;;;;;;2.50;1.20;;;16.90;99.90;;;;;;5085102;28;20575;-80
2022/05/09 12:14:44;;;;;;;2.75;1.55;;;16.90;99.90;;;;;;5074724;28;20453;-82
2022/05/09 12:17:36;;;;;;;2.92;1.25;;;16.90;99.90;;;;;;5073423;28;20250;-81
2022/05/09 12:20:14;;;;;;;3.72;1.40;;;16.90;99.90;;;;;;5073493;28;20202;-80
2022/05/09 12:22:51;;;;;;;3.40;1.60;;;16.90;99.90;;;;;;5073111;28;20199;-78
2022/05/09 12:26:03;;;;;;;3.65;1.50;;;16.90;99.90;;;;;;5079103;28;20266;-82
2022/05/09 12:28:36;;;;;;;1.67;1.27;;;16.90;99.90;;;;;;5104492;28;20602;-82
2022/05/09 12:31:29;;;;;;;2.53;1.30;;;16.90;99.90;;;;;;5080440;28;20274;-83
2022/05/09 12:34:02;;;;;;;4.00;1.40;;;16.90;99.90;;;;;;5073581;28;20225;-84
2022/05/09 12:36:34;;;;;;;3.00;1.60;;;16.90;99.90;;;;;;5073623;28;20215;-84
2022/05/09 12:39:11;;;;;;;2.63;1.27;;;16.80;99.90;;;;;;5072596;28;20199;-81
2022/05/09 12:41:48;;;;;;;2.67;1.30;;;16.80;99.90;;;;;;5083042;28;20207;-82
2022/05/09 12:44:22;;;;;;;3.20;1.50;;;16.80;99.90;;;;;;5093075;28;20746;-83
2022/05/09 12:46:57;;;;;;;1.73;1.20;;;16.80;99.90;;;;;;5091968;28;20230;-82
2022/05/09 12:49:35;;;;;;;3.90;1.35;;;16.80;99.90;;;;;;5093383;28;20254;-82
2022/05/09 12:52:06;;;;;;;3.17;1.67;;;16.80;99.90;;;;;;5093995;28;20187;-86
2022/05/09 12:54:39;;;;;;;2.20;1.40;;;16.80;99.90;;;;;;5093497;28;20732;-85
2022/05/09 12:57:10;;;;;;;1.85;1.23;;;16.80;99.90;;;;;;5092965;28;20215;-84
2022/05/09 12:59:52;;;;;;;2.22;1.35;;;16.80;99.90;;;;;;5074379;28;20278;-86
2022/05/09 13:02:28;;;;;;;3.45;1.50;;;16.80;99.90;;;;;;5072807;28;20228;-86
2022/05/09 13:04:58;;;;;;;3.40;1.50;;;16.80;99.90;;;;;;5073660;28;20273;-84
2022/05/09 13:07:29;;;;;;;2.22;1.45;;;16.80;99.90;;;;;;5072826;28;20206;-81
2022/05/09 13:10:00;;;;;;;2.30;1.40;;;16.80;99.90;;;;;;5072838;28;20200;-84
2022/05/09 13:12:34;;;;;;;4.03;1.67;;;16.70;99.90;;;;;;5072696;28;20192;-82
2022/05/09 13:15:09;;;;;;;3.20;1.42;;;16.70;99.90;;;;;;5072844;28;20261;-83
2022/05/09 13:17:46;;;;;;;3.13;1.40;;;16.70;99.90;;;;;;5072253;28;20227;-82
2022/05/09 13:20:18;;;;;;;2.40;1.60;;;16.70;99.90;;;;;;5072575;28;20199;-82
2022/05/09 13:22:51;;;;;;;3.08;1.80;;;16.80;99.90;;;;;;5072013;28;20192;-85
2022/05/09 13:25:26;;;;;;;3.85;2.00;;;16.70;99.90;;;;;;5086978;28;20214;-82
2022/05/09 13:27:59;;;;;;;3.30;1.70;;;16.60;99.90;;;;;;5102488;28;20210;-80
2022/05/09 13:30:33;;;;;;;2.67;1.45;;;16.60;99.90;;;;;;5107793;28;20197;-81
2022/05/09 13:33:07;;;;;;;3.90;1.98;;;16.60;99.90;;;;;;5090342;28;20256;-83
2022/05/09 13:35:42;;;;;;;3.92;2.08;;;16.70;99.90;;;;;;5092356;28;20217;-83
2022/05/09 13:38:24;;;;;;;5.78;2.22;;;16.70;99.90;;;;;;5080490;28;20199;-79